createdAt,value
2023-10-06T00:00:35.209Z,16.30
2023-10-06T00:03:07.263Z,16.35
2023-10-06T00:05:35.102Z,16.36
2023-10-06T00:08:06.049Z,16.36
2023-10-06T00:10:33.339Z,16.30
2023-10-06T00:13:00.425Z,16.34
2023-10-06T00:15:39.821Z,16.32
2023-10-06T00:18:17.641Z,16.32
2023-10-06T00:20:49.848Z,16.31
2023-10-06T00:23:23.827Z,16.27
2023-10-06T00:25:53.368Z,16.28
2023-10-06T00:28:21.125Z,16.27
2023-10-06T00:30:49.201Z,16.26
2023-10-06T00:33:18.950Z,16.25
2023-10-06T00:35:49.193Z,16.25
2023-10-06T00:38:17.907Z,16.24
2023-10-06T00:40:52.476Z,16.24
2023-10-06T00:43:37.856Z,16.23
2023-10-06T00:46:08.418Z,16.24
2023-10-06T00:48:41.696Z,16.21
2023-10-06T00:51:23.235Z,16.22
2023-10-06T00:53:53.828Z,16.20
2023-10-06T00:56:24.712Z,16.23
2023-10-06T00:58:52.765Z,16.19
2023-10-06T01:01:20.605Z,16.24
2023-10-06T01:03:56.187Z,16.26
2023-10-06T01:06:28.361Z,16.29
2023-10-06T01:09:08.021Z,16.31
2023-10-06T01:11:46.582Z,16.34
2023-10-06T01:14:23.126Z,16.37
2023-10-06T01:16:51.867Z,16.42
2023-10-06T01:19:25.219Z,16.46
2023-10-06T01:21:55.233Z,16.50
2023-10-06T01:24:26.613Z,16.51
2023-10-06T01:27:08.836Z,16.59
2023-10-06T01:29:36.281Z,16.65
2023-10-06T01:32:07.088Z,16.68
2023-10-06T01:34:38.608Z,16.73
2023-10-06T01:37:12.733Z,16.75
2023-10-06T01:39:41.033Z,16.79
2023-10-06T01:42:08.573Z,16.82
2023-10-06T01:44:36.257Z,16.86
2023-10-06T01:47:06.540Z,16.89
2023-10-06T01:49:37.629Z,16.93
2023-10-06T01:52:09.281Z,16.95
2023-10-06T01:54:37.203Z,16.97
2023-10-06T01:57:05.473Z,16.99
2023-10-06T01:59:32.436Z,17.00
2023-10-06T02:02:02.766Z,16.98
2023-10-06T02:04:42.998Z,17.02
2023-10-06T02:07:11.784Z,17.08
2023-10-06T02:09:40.620Z,17.11
2023-10-06T02:12:07.988Z,17.11
2023-10-06T02:14:35.019Z,17.14
2023-10-06T02:17:06.990Z,17.17
2023-10-06T02:19:35.547Z,17.19
2023-10-06T02:22:06.776Z,17.19
2023-10-06T02:24:34.596Z,17.20
2023-10-06T02:27:02.599Z,17.22
2023-10-06T02:29:30.431Z,17.19
2023-10-06T02:32:10.213Z,17.26
2023-10-06T02:34:37.676Z,17.26
2023-10-06T02:37:05.650Z,17.25
2023-10-06T02:39:38.806Z,17.23
2023-10-06T02:42:09.989Z,17.28
2023-10-06T02:44:42.263Z,17.30
2023-10-06T02:47:11.782Z,17.25
2023-10-06T02:49:42.554Z,17.29
2023-10-06T02:52:31.079Z,17.28
2023-10-06T02:55:06.646Z,17.27
2023-10-06T02:57:37.325Z,17.27
2023-10-06T03:00:22.429Z,17.29
2023-10-06T03:02:49.546Z,17.30
2023-10-06T03:05:16.585Z,17.33
2023-10-06T03:07:45.359Z,17.35
2023-10-06T03:10:12.586Z,17.37
2023-10-06T03:12:40.923Z,17.39
2023-10-06T03:15:28.476Z,17.40
2023-10-06T03:18:01.970Z,17.42
2023-10-06T03:20:47.819Z,17.42
2023-10-06T03:23:32.524Z,17.45
2023-10-06T03:25:59.998Z,17.46
2023-10-06T03:28:37.750Z,17.48
2023-10-06T03:31:23.394Z,17.50
2023-10-06T03:33:56.789Z,17.53
2023-10-06T03:36:38.735Z,17.54
2023-10-06T03:39:09.116Z,17.57
2023-10-06T03:41:38.543Z,17.61
2023-10-06T03:44:06.395Z,17.64
2023-10-06T03:46:39.008Z,17.65
2023-10-06T03:49:10.669Z,17.67
2023-10-06T03:51:41.657Z,17.67
2023-10-06T03:54:11.957Z,17.69
2023-10-06T03:56:38.932Z,17.70
2023-10-06T03:59:16.216Z,17.73
2023-10-06T04:01:47.222Z,17.74
2023-10-06T04:04:23.157Z,17.75
2023-10-06T04:06:50.446Z,17.76
2023-10-06T04:09:28.932Z,17.77
2023-10-06T04:11:58.273Z,17.79
2023-10-06T04:14:28.861Z,17.77
2023-10-06T04:16:55.922Z,17.78
2023-10-06T04:19:23.144Z,17.80
2023-10-06T04:21:50.131Z,17.81
2023-10-06T04:24:17.075Z,17.82
2023-10-06T04:26:44.058Z,17.83
2023-10-06T04:29:14.652Z,17.83
2023-10-06T04:31:41.933Z,17.85
2023-10-06T04:34:10.780Z,17.86
2023-10-06T04:36:39.112Z,17.89
2023-10-06T04:39:11.221Z,17.91
2023-10-06T04:41:38.283Z,17.92
2023-10-06T04:44:05.463Z,17.95
2023-10-06T04:46:32.511Z,17.96
2023-10-06T04:48:59.588Z,17.99
2023-10-06T04:51:28.341Z,18.01
2023-10-06T04:53:56.186Z,18.03
2023-10-06T04:56:23.640Z,18.06
2023-10-06T04:58:50.616Z,18.08
2023-10-06T05:01:17.845Z,18.09
2023-10-06T05:03:45.598Z,18.10
2023-10-06T05:06:18.687Z,18.08
2023-10-06T05:08:48.428Z,18.05
2023-10-06T05:11:20.933Z,18.10
2023-10-06T05:13:53.857Z,18.12
2023-10-06T05:16:24.016Z,18.10
2023-10-06T05:18:51.377Z,18.13
2023-10-06T05:21:20.289Z,18.13
2023-10-06T05:23:47.803Z,18.14
2023-10-06T05:26:16.275Z,18.14
2023-10-06T05:28:44.659Z,18.18
2023-10-06T05:31:12.646Z,18.16
2023-10-06T05:33:42.007Z,18.20
2023-10-06T05:36:16.440Z,18.21
2023-10-06T05:38:48.624Z,18.23
2023-10-06T05:41:16.495Z,18.23
2023-10-06T05:43:44.588Z,18.25
2023-10-06T05:46:12.630Z,18.18
2023-10-06T05:48:40.962Z,18.27
2023-10-06T05:51:11.425Z,18.23
2023-10-06T05:53:44.304Z,18.27
2023-10-06T05:56:11.886Z,18.26
2023-10-06T05:58:39.612Z,18.29
2023-10-06T06:01:16.056Z,18.30
2023-10-06T06:03:51.269Z,18.31
2023-10-06T06:06:24.056Z,18.33
2023-10-06T06:08:54.554Z,18.33
2023-10-06T06:11:21.803Z,18.35
2023-10-06T06:13:58.781Z,18.35
2023-10-06T06:16:31.744Z,18.37
2023-10-06T06:18:59.603Z,18.37
2023-10-06T06:21:26.910Z,18.41
2023-10-06T06:23:58.163Z,18.44
2023-10-06T06:26:25.874Z,18.48
2023-10-06T06:28:54.336Z,18.50
2023-10-06T06:31:21.825Z,18.49
2023-10-06T06:33:50.169Z,18.55
2023-10-06T06:36:19.792Z,18.58
2023-10-06T06:38:47.491Z,18.60
2023-10-06T06:41:14.494Z,18.64
2023-10-06T06:43:46.683Z,18.68
2023-10-06T06:46:14.308Z,18.72
2023-10-06T06:48:44.783Z,18.76
2023-10-06T06:51:12.749Z,18.82
2023-10-06T06:53:43.033Z,18.85
2023-10-06T06:56:12.025Z,18.90
2023-10-06T06:58:39.883Z,18.93
2023-10-06T07:01:15.626Z,18.98
2023-10-06T07:03:42.922Z,19.04
2023-10-06T07:06:15.409Z,19.07
2023-10-06T07:08:43.323Z,19.09
2023-10-06T07:11:14.274Z,19.16
2023-10-06T07:13:43.341Z,19.19
2023-10-06T07:16:11.064Z,19.23
2023-10-06T07:18:38.748Z,19.27
2023-10-06T07:21:10.383Z,19.32
2023-10-06T07:23:39.008Z,19.39
2023-10-06T07:26:13.123Z,19.41
2023-10-06T07:28:41.129Z,19.44
2023-10-06T07:31:14.863Z,19.50
2023-10-06T07:33:45.038Z,19.50
2023-10-06T07:36:18.943Z,19.53
2023-10-06T07:38:46.992Z,19.55
2023-10-06T07:41:24.997Z,19.58
2023-10-06T07:43:53.660Z,19.60
2023-10-06T07:46:20.822Z,19.64
2023-10-06T07:48:48.048Z,19.71
2023-10-06T07:51:15.040Z,19.74
2023-10-06T07:53:41.971Z,19.78
2023-10-06T07:56:09.562Z,19.80
2023-10-06T07:58:40.114Z,19.82
2023-10-06T08:01:09.303Z,19.83
2023-10-06T08:03:40.162Z,19.83
2023-10-06T08:06:07.706Z,19.89
2023-10-06T08:08:36.158Z,19.90
2023-10-06T08:11:03.862Z,19.96
2023-10-06T08:13:34.739Z,19.95
2023-10-06T08:16:02.493Z,20.00
2023-10-06T08:18:33.398Z,20.00
2023-10-06T08:21:04.617Z,20.01
2023-10-06T08:23:36.647Z,20.02
2023-10-06T08:26:09.459Z,20.03
2023-10-06T08:28:36.675Z,20.02
2023-10-06T08:31:04.418Z,19.97
2023-10-06T08:33:32.288Z,20.07
2023-10-06T08:36:01.761Z,20.07
2023-10-06T08:38:29.824Z,20.08
2023-10-06T08:41:03.098Z,20.03
2023-10-06T08:43:30.948Z,20.08
2023-10-06T08:46:01.222Z,20.07
2023-10-06T08:48:34.025Z,20.05
2023-10-06T08:51:08.200Z,20.05
2023-10-06T08:53:40.090Z,20.03
2023-10-06T08:56:07.045Z,20.01
2023-10-06T08:58:36.369Z,19.99
2023-10-06T09:01:06.907Z,19.95
2023-10-06T09:03:35.027Z,19.94
2023-10-06T09:06:04.010Z,19.95
2023-10-06T09:08:44.234Z,19.89
2023-10-06T09:11:11.354Z,19.90
2023-10-06T09:13:38.415Z,19.96
2023-10-06T09:16:09.603Z,19.99
2023-10-06T09:21:27.228Z,20.07
2023-10-06T09:23:55.550Z,20.02
2023-10-06T09:26:30.817Z,20.08
2023-10-06T09:29:02.562Z,20.08
2023-10-06T09:31:46.568Z,20.13
2023-10-06T09:34:24.620Z,20.16
2023-10-06T09:36:52.087Z,20.18
2023-10-06T09:39:35.271Z,20.19
2023-10-06T09:42:02.996Z,20.23
2023-10-06T09:44:31.906Z,20.25
2023-10-06T09:47:02.326Z,20.26
2023-10-06T09:49:32.934Z,20.33
2023-10-06T09:52:04.669Z,20.36
2023-10-06T09:54:32.511Z,20.39
2023-10-06T09:57:01.455Z,20.42
2023-10-06T09:59:32.959Z,20.43
2023-10-06T10:02:02.423Z,20.45
2023-10-06T10:04:31.813Z,20.52
2023-10-06T10:07:03.094Z,20.58
2023-10-06T10:09:32.527Z,20.64
2023-10-06T10:12:33.977Z,20.68
2023-10-06T10:15:25.725Z,20.72
2023-10-06T10:18:40.128Z,20.76
2023-10-06T10:21:12.379Z,20.75
2023-10-06T10:23:42.794Z,20.82
2023-10-06T10:26:23.807Z,20.83
2023-10-06T10:29:13.304Z,20.86
2023-10-06T10:31:58.189Z,20.93
2023-10-06T10:34:27.284Z,21.02
2023-10-06T10:37:09.299Z,21.11
2023-10-06T10:39:52.260Z,21.17
2023-10-06T10:42:40.417Z,21.18
2023-10-06T10:45:45.248Z,21.23
2023-10-06T10:48:14.912Z,21.24
2023-10-06T10:51:04.246Z,21.33
2023-10-06T10:53:38.655Z,21.32
2023-10-06T10:56:08.026Z,21.40
2023-10-06T10:58:49.174Z,21.38
2023-10-06T11:01:39.650Z,21.35
2023-10-06T11:04:19.517Z,21.39
2023-10-06T11:06:49.536Z,21.43
2023-10-06T11:09:30.022Z,21.44
2023-10-06T11:12:23.190Z,21.41
2023-10-06T11:14:53.579Z,21.47
2023-10-06T11:17:27.324Z,21.46
2023-10-06T11:20:23.469Z,21.48
2023-10-06T11:23:00.980Z,21.46
2023-10-06T11:25:30.423Z,21.46
2023-10-06T11:28:06.125Z,21.43
2023-10-06T11:30:35.541Z,21.38
2023-10-06T11:33:05.102Z,21.41
2023-10-06T11:35:34.323Z,21.40
2023-10-06T11:38:08.089Z,21.41
2023-10-06T11:40:36.813Z,21.41
2023-10-06T11:43:14.576Z,21.42
2023-10-06T11:45:43.614Z,21.41
2023-10-06T11:48:32.271Z,21.39
2023-10-06T11:51:10.944Z,21.38
2023-10-06T11:53:40.172Z,21.34
2023-10-06T11:56:13.481Z,21.29
2023-10-06T11:58:42.664Z,21.25
2023-10-06T12:01:39.202Z,21.22
2023-10-06T12:04:24.010Z,21.22
2023-10-06T12:06:52.441Z,21.24
2023-10-06T12:09:31.691Z,21.24
2023-10-06T12:12:00.539Z,21.26
2023-10-06T12:14:28.107Z,21.27
2023-10-06T12:16:58.805Z,21.31
2023-10-06T12:19:25.904Z,21.30
2023-10-06T12:21:53.070Z,21.29
2023-10-06T12:24:23.530Z,21.32
2023-10-06T12:26:50.598Z,21.33
2023-10-06T12:29:18.176Z,21.36
2023-10-06T12:31:46.757Z,21.39
2023-10-06T12:34:17.115Z,21.41
2023-10-06T12:36:49.405Z,21.43
2023-10-06T12:39:34.279Z,21.41
2023-10-06T12:42:02.357Z,21.41
2023-10-06T12:44:29.844Z,21.37
2023-10-06T12:46:57.345Z,21.38
2023-10-06T12:49:25.224Z,21.37
2023-10-06T12:51:53.254Z,21.34
2023-10-06T12:54:20.517Z,21.31
2023-10-06T12:56:50.322Z,21.30
2023-10-06T12:59:17.284Z,21.26
2023-10-06T13:01:44.258Z,21.26
2023-10-06T13:04:14.658Z,21.29
2023-10-06T13:06:42.151Z,21.27
2023-10-06T13:09:09.979Z,21.26
2023-10-06T13:11:36.980Z,21.23
2023-10-06T13:16:51.785Z,21.15
2023-10-06T13:19:18.754Z,21.07
2023-10-06T13:21:45.915Z,21.11
2023-10-06T13:24:14.226Z,21.07
2023-10-06T13:26:44.904Z,21.10
2023-10-06T13:29:12.118Z,21.10
2023-10-06T13:31:39.105Z,21.10
2023-10-06T13:34:08.523Z,21.13
2023-10-06T13:36:35.726Z,21.14
2023-10-06T13:39:03.757Z,21.13
2023-10-06T13:41:30.761Z,21.13
2023-10-06T13:43:57.732Z,21.09
2023-10-06T13:46:26.709Z,21.06
2023-10-06T13:48:53.804Z,21.00
2023-10-06T13:51:20.820Z,20.97
2023-10-06T13:53:47.727Z,20.93
2023-10-06T13:56:14.930Z,20.88
2023-10-06T13:58:41.958Z,20.83
2023-10-06T14:01:10.656Z,20.77
2023-10-06T14:06:05.879Z,20.69
2023-10-06T14:08:34.481Z,20.66
2023-10-06T14:11:01.516Z,20.63
2023-10-06T14:13:29.676Z,20.57
2023-10-06T14:15:57.197Z,20.49
2023-10-06T14:18:32.016Z,20.50
2023-10-06T14:20:59.380Z,20.47
2023-10-06T14:23:31.959Z,20.43
2023-10-06T14:26:01.988Z,20.40
2023-10-06T14:28:29.826Z,20.37
2023-10-06T14:31:06.851Z,20.32
2023-10-06T14:33:40.625Z,20.28
2023-10-06T14:36:07.815Z,20.23
2023-10-06T14:38:44.863Z,20.18
2023-10-06T14:41:35.638Z,20.12
2023-10-06T14:44:21.931Z,20.07
2023-10-06T14:46:52.939Z,20.02
2023-10-06T14:49:29.237Z,20.01
2023-10-06T14:51:58.828Z,19.96
2023-10-06T14:57:18.257Z,19.91
2023-10-06T14:59:45.286Z,19.91
2023-10-06T15:02:12.666Z,19.90
2023-10-06T15:04:40.480Z,19.87
2023-10-06T15:07:10.133Z,19.91
2023-10-06T15:09:39.833Z,19.87
2023-10-06T15:12:07.248Z,19.94
2023-10-06T15:14:37.081Z,19.96
2023-10-06T15:17:05.836Z,19.97
2023-10-06T15:19:36.822Z,19.98
2023-10-06T15:22:04.254Z,19.95
2023-10-06T15:24:31.247Z,19.99
2023-10-06T15:26:58.253Z,19.99
2023-10-06T15:29:29.179Z,20.00
2023-10-06T15:31:57.113Z,20.03
2023-10-06T15:34:25.165Z,20.00
2023-10-06T15:36:52.128Z,20.10
2023-10-06T15:39:19.723Z,20.11
2023-10-06T15:41:51.622Z,20.08
2023-10-06T15:44:19.805Z,20.13
2023-10-06T15:46:47.362Z,20.13
2023-10-06T15:49:19.812Z,20.15
2023-10-06T15:51:48.660Z,20.12
2023-10-06T15:54:17.401Z,20.14
2023-10-06T15:56:45.180Z,20.16
2023-10-06T15:59:16.515Z,20.15
2023-10-06T16:01:46.018Z,20.16
2023-10-06T16:04:15.357Z,20.16
2023-10-06T16:06:44.534Z,20.10
2023-10-06T16:09:16.873Z,20.12
2023-10-06T16:11:44.486Z,20.12
2023-10-06T16:14:13.416Z,20.09
2023-10-06T16:16:41.443Z,20.11
2023-10-06T16:19:10.038Z,20.10
2023-10-06T16:21:37.328Z,20.10
2023-10-06T16:24:07.161Z,20.09
2023-10-06T16:26:34.230Z,20.08
2023-10-06T16:29:01.490Z,20.09
2023-10-06T16:31:30.362Z,20.08
2023-10-06T16:33:58.414Z,20.08
2023-10-06T16:36:25.658Z,20.07
2023-10-06T16:38:52.687Z,20.06
2023-10-06T16:41:23.404Z,20.00
2023-10-06T16:43:56.529Z,20.04
2023-10-06T16:46:23.676Z,20.06
2023-10-06T16:48:50.724Z,20.01
2023-10-06T16:51:19.085Z,20.11
2023-10-06T16:53:49.354Z,20.12
2023-10-06T16:56:16.693Z,20.09
2023-10-06T16:58:43.674Z,20.11
2023-10-06T17:01:10.722Z,20.12
2023-10-06T17:03:38.038Z,20.11
2023-10-06T17:06:07.407Z,20.13
2023-10-06T17:08:34.761Z,20.12
2023-10-06T17:11:19.584Z,20.16
2023-10-06T17:13:47.069Z,20.18
2023-10-06T17:16:15.280Z,20.08
2023-10-06T17:18:43.016Z,20.21
2023-10-06T17:21:14.931Z,20.20
2023-10-06T17:23:43.855Z,20.21
2023-10-06T17:26:11.193Z,20.25
2023-10-06T17:28:39.672Z,20.26
2023-10-06T17:31:12.106Z,20.26
2023-10-06T17:33:39.095Z,20.26
2023-10-06T17:36:09.010Z,20.27
2023-10-06T17:38:36.700Z,20.24
2023-10-06T17:41:04.819Z,20.24
2023-10-06T17:43:31.754Z,20.26
2023-10-06T17:45:59.317Z,20.28
2023-10-06T17:48:26.758Z,20.29
2023-10-06T17:50:54.219Z,20.31
2023-10-06T17:53:21.351Z,20.32
2023-10-06T17:55:56.027Z,20.34
2023-10-06T17:58:24.380Z,20.34
2023-10-06T18:00:51.486Z,20.40
2023-10-06T18:03:18.975Z,20.42
2023-10-06T18:05:49.351Z,20.43
2023-10-06T18:08:17.642Z,20.44
2023-10-06T18:10:46.014Z,20.47
2023-10-06T18:13:13.177Z,20.48
2023-10-06T18:15:40.291Z,20.53
2023-10-06T18:18:07.802Z,20.54
2023-10-06T18:20:43.820Z,20.53
2023-10-06T18:23:12.249Z,20.57
2023-10-06T18:25:40.188Z,20.61
2023-10-06T18:28:08.423Z,20.63
2023-10-06T18:30:36.003Z,20.65
2023-10-06T18:33:03.491Z,20.66
2023-10-06T18:35:30.599Z,20.68
2023-10-06T18:37:58.641Z,20.70
2023-10-06T18:40:26.096Z,20.73
2023-10-06T18:42:53.076Z,20.76
2023-10-06T18:45:20.019Z,20.78
2023-10-06T18:47:46.968Z,20.80
2023-10-06T18:50:19.829Z,20.83
2023-10-06T18:52:50.879Z,20.85
2023-10-06T18:55:19.351Z,20.87
2023-10-06T18:57:46.556Z,20.88
2023-10-06T19:00:14.334Z,20.90
2023-10-06T19:02:42.443Z,20.91
2023-10-06T19:05:10.550Z,20.93
2023-10-06T19:07:37.680Z,20.95
2023-10-06T19:10:10.384Z,20.97
2023-10-06T19:12:38.121Z,20.97
2023-10-06T19:15:09.371Z,20.93
2023-10-06T19:17:40.103Z,20.99
2023-10-06T19:20:08.659Z,20.98
2023-10-06T19:22:36.018Z,21.04
2023-10-06T19:25:03.115Z,21.05
2023-10-06T19:27:30.083Z,21.06
2023-10-06T19:29:57.004Z,21.08
2023-10-06T19:32:24.924Z,21.09
2023-10-06T19:34:52.681Z,21.11
2023-10-06T19:37:20.874Z,21.13
2023-10-06T19:39:47.855Z,21.15
2023-10-06T19:42:14.919Z,21.19
2023-10-06T19:44:44.643Z,21.19
2023-10-06T19:47:13.583Z,21.20
2023-10-06T19:49:40.947Z,21.20
2023-10-06T19:52:09.287Z,21.22
2023-10-06T19:54:36.957Z,21.21
2023-10-06T19:57:04.277Z,21.25
2023-10-06T19:59:33.825Z,21.24
2023-10-06T20:02:02.443Z,21.28
2023-10-06T20:04:29.512Z,21.26
2023-10-06T20:06:56.478Z,21.31
2023-10-06T20:09:25.262Z,21.31
2023-10-06T20:11:53.298Z,21.32
2023-10-06T20:14:20.618Z,21.33
2023-10-06T20:16:47.691Z,21.35
2023-10-06T20:19:17.032Z,21.35
2023-10-06T20:21:44.421Z,21.38
2023-10-06T20:24:13.524Z,21.38
2023-10-06T20:26:44.509Z,21.39
2023-10-06T20:29:11.804Z,21.44
2023-10-06T20:31:40.950Z,21.45
2023-10-06T20:34:08.751Z,21.41
2023-10-06T20:36:36.143Z,21.50
2023-10-06T20:39:09.627Z,21.50
2023-10-06T20:41:38.713Z,21.52
2023-10-06T20:44:11.326Z,21.53
2023-10-06T20:46:44.774Z,21.55
2023-10-06T20:49:14.950Z,21.56
2023-10-06T20:51:42.444Z,21.58
2023-10-06T20:54:09.828Z,21.60
2023-10-06T20:56:38.852Z,21.59
2023-10-06T20:59:08.459Z,21.58
2023-10-06T21:01:35.454Z,21.58
2023-10-06T21:04:05.481Z,21.57
2023-10-06T21:06:35.722Z,21.60
2023-10-06T21:09:06.959Z,21.58
2023-10-06T21:11:36.418Z,21.58
2023-10-06T21:14:03.523Z,21.59
2023-10-06T21:16:30.698Z,21.57
2023-10-06T21:18:57.771Z,21.62
2023-10-06T21:21:24.727Z,21.63
2023-10-06T21:23:51.676Z,21.64
2023-10-06T21:26:18.589Z,21.64
2023-10-06T21:28:45.969Z,21.65
2023-10-06T21:31:13.011Z,21.66
2023-10-06T21:33:39.948Z,21.66
2023-10-06T21:36:07.655Z,21.65
2023-10-06T21:38:34.609Z,21.67
2023-10-06T21:41:02.184Z,21.67
2023-10-06T21:43:29.219Z,21.67
2023-10-06T21:45:56.199Z,21.68
2023-10-06T21:48:23.130Z,21.69
2023-10-06T21:50:50.205Z,21.68
2023-10-06T21:53:17.259Z,21.68
2023-10-06T21:55:45.277Z,21.65
2023-10-06T21:58:12.227Z,21.67
2023-10-06T22:00:45.157Z,21.68
2023-10-06T22:03:13.905Z,21.68
2023-10-06T22:05:45.069Z,21.66
2023-10-06T22:08:12.595Z,21.69
2023-10-06T22:10:39.719Z,21.71
2023-10-06T22:13:06.665Z,21.73
2023-10-06T22:15:33.615Z,21.75
2023-10-06T22:18:00.669Z,21.72
2023-10-06T22:20:31.862Z,21.74
2023-10-06T22:23:00.305Z,21.72
2023-10-06T22:25:30.268Z,21.72
2023-10-06T22:27:57.234Z,21.71
2023-10-06T22:30:24.578Z,21.73
2023-10-06T22:32:51.793Z,21.72
2023-10-06T22:35:18.901Z,21.73
2023-10-06T22:37:47.040Z,21.74
2023-10-06T22:40:17.846Z,21.74
2023-10-06T22:42:49.242Z,21.75
2023-10-06T22:45:20.706Z,21.74
2023-10-06T22:47:49.609Z,21.75
2023-10-06T22:50:20.101Z,21.75
2023-10-06T22:52:49.606Z,21.77
2023-10-06T22:55:19.694Z,21.76
2023-10-06T22:57:48.580Z,21.77
2023-10-06T23:00:18.193Z,21.76
2023-10-06T23:02:47.044Z,21.74
2023-10-06T23:05:17.750Z,21.74
2023-10-06T23:07:49.259Z,21.75
2023-10-06T23:10:18.459Z,21.75
2023-10-06T23:12:53.647Z,21.76
2023-10-06T23:15:21.737Z,21.74
2023-10-06T23:17:50.477Z,21.76
2023-10-06T23:20:24.568Z,21.76
2023-10-06T23:23:00.200Z,21.73
2023-10-06T23:25:37.543Z,21.78
2023-10-06T23:28:06.690Z,21.78
2023-10-06T23:30:34.535Z,21.79
2023-10-06T23:33:01.770Z,21.79
2023-10-06T23:35:29.526Z,21.80
2023-10-06T23:37:56.674Z,21.81
2023-10-06T23:40:25.186Z,21.79
2023-10-06T23:42:55.914Z,21.82
2023-10-06T23:45:30.448Z,21.82
2023-10-06T23:47:58.775Z,21.81
2023-10-06T23:50:29.889Z,21.82
2023-10-06T23:53:01.399Z,21.80
2023-10-06T23:55:29.337Z,21.82
2023-10-06T23:57:56.576Z,21.81
